This is the latest recevied weather packets stored in our database for station/object OH2TH. If no packets are shown the sender has not sent any weather packets the latest 1 day(s).
| Time | Temp. | Humidity | Pressure | Rain* | Wind** | Luminosity | Snow |
|---|---|---|---|---|---|---|---|
| 1778084102 | 10.56° C | 41% | 101 hPa | - | - | - | - |
| 1778082302 | 10.56° C | 41% | 101 hPa | - | - | - | - |
| 1778075101 | 11.11° C | 36% | 101 hPa | - | - | - | - |
| 1778074201 | 11.11° C | 38% | 101 hPa | - | - | - | - |
| 1778070605 | 11.11° C | 39% | 101 hPa | - | - | - | - |
| 1778064304 | 12.78° C | 25% | 101 hPa | - | - | - | - |
| 1778063404 | 12.78° C | 26% | 101 hPa | - | - | - | - |
| 1778058003 | 11.11° C | 31% | 101 hPa | - | - | - | - |
| 1778052602 | 10° C | 42% | 101 hPa | - | - | - | - |
| 1778051702 | 10° C | 42% | 101 hPa | - | - | - | - |
| 1778047201 | 7.22° C | 57% | 101 hPa | - | - | - | - |
| 1778046301 | 6.11° C | 61% | 101 hPa | - | - | - | - |
| 1778043605 | 2.78° C | 74% | 101 hPa | - | - | - | - |
| 1778040904 | 1.11° C | 82% | 101 hPa | - | - | - | - |
| 1778039103 | - | 83% | 101 hPa | - | - | - | - |
| 1778031901 | 0° C | 83% | 101 hPa | - | - | - | - |
| 1778031005 | 0° C | 82% | 101 hPa | - | - | - | - |
| 1778018405 | 2.78° C | 74% | 101 hPa | - | - | - | - |
| 1778012105 | 4.44° C | 63% | 101 hPa | 22.61 mm | - | - | - |
| 1778006702 | 6.67° C | 49% | 100 hPa | 22.61 mm | - | - | - |
| 1778003101 | 8.33° C | 43% | 100 hPa | 22.61 mm | - | - | - |
| 1778001305 | 8.33° C | 39% | 100 hPa | 22.61 mm | - | - | - |
* Rain since midnight (hover to see other rain measurements)
** Current wind speed in m/s (hover to see current wind gust speed)